Time;durP1;ratioP1;P1;durP2;ratioP2;P2;SDS_P1;SDS_P2;PMS_P1;PMS_P2;Temp;Humidity;BMP_temperature;BMP_pressure;BME280_temperature;BME280_humidity;BME280_pressure;Samples;Min_cycle;Max_cycle;Signal;HPM_P1;HPM_P2
2023/01/21 00:01:11;;;;;;;2.05;1.95;;;;;;;1.27;90.99;98623.44;4455751;32;34481;-68
2023/01/21 00:03:40;;;;;;;1.10;1.10;;;;;;;1.42;90.48;98622.78;4455400;32;33612;-84
2023/01/21 00:06:08;;;;;;;2.15;1.90;;;;;;;1.67;89.15;98623.97;4455578;32;33994;-86
2023/01/21 00:08:36;;;;;;;1.37;1.27;;;;;;;1.53;89.92;98622.94;4455591;32;35193;-86
2023/01/21 00:11:06;;;;;;;1.75;1.65;;;;;;;1.58;88.77;98616.16;4455508;32;34544;-85
2023/01/21 00:13:35;;;;;;;3.10;2.90;;;;;;;1.59;88.85;98619.59;4455513;32;33481;-68
2023/01/21 00:16:04;;;;;;;1.15;1.10;;;;;;;1.55;89.49;98623.81;4455206;32;33334;-82
2023/01/21 00:18:33;;;;;;;2.95;2.80;;;;;;;1.43;89.75;98624.53;4454590;32;35844;-69
2023/01/21 00:21:01;;;;;;;0.70;0.70;;;;;;;1.24;90.73;98623.38;4455246;32;35178;-88
2023/01/21 00:23:29;;;;;;;1.17;1.12;;;;;;;1.57;89.67;98641.78;4455342;32;34353;-84
2023/01/21 00:25:59;;;;;;;8.48;6.05;;;;;;;1.74;89.42;98645.44;4455315;32;33952;-84
2023/01/21 00:28:28;;;;;;;2.72;2.53;;;;;;;1.73;87.90;98640.28;4455395;32;35927;-84
2023/01/21 00:31:00;;;;;;;3.12;2.65;;;;;;;1.80;87.67;98645.56;4455322;32;34546;-85
2023/01/21 00:33:29;;;;;;;0.93;0.93;;;;;;;1.32;89.75;98639.75;4455063;32;33465;-86
2023/01/21 00:36:00;;;;;;;2.65;2.50;;;;;;;1.79;87.92;98641.25;4441397;32;34120;-84
2023/01/21 00:38:28;;;;;;;0.70;0.70;;;;;;;1.58;89.82;98639.25;4441490;32;35392;-83
2023/01/21 00:41:04;;;;;;;1.90;1.77;;;;;;;1.63;89.66;98637.63;4455319;32;34560;-84
2023/01/21 00:43:33;;;;;;;1.27;1.27;;;;;;;1.71;89.25;98635.13;4455290;32;34362;-86
2023/01/21 00:46:01;;;;;;;1.37;1.35;;;;;;;1.56;90.21;98630.69;4455079;32;34060;-74
2023/01/21 00:48:29;;;;;;;1.10;1.05;;;;;;;1.78;88.73;98628.37;4454952;32;35157;-85
2023/01/21 00:50:59;;;;;;;1.08;1.08;;;;;;;1.71;88.94;98630.00;4455173;32;34626;-84
2023/01/21 00:53:33;;;;;;;0.82;0.82;;;;;;;1.51;89.79;98624.62;4455409;32;33293;-86
2023/01/21 00:56:06;;;;;;;0.80;0.80;;;;;;;1.67;89.74;98626.53;4455131;32;34731;-87
2023/01/21 00:58:34;;;;;;;1.80;1.70;;;;;;;1.72;88.91;98631.75;4441238;32;35082;-71
2023/01/21 01:01:22;;;;;;;7.18;3.40;;;;;;;1.44;90.30;98617.69;4455409;32;35208;-84
2023/01/21 01:03:51;;;;;;;1.02;1.02;;;;;;;1.33;90.67;98623.50;4455064;32;33437;-86
2023/01/21 01:06:21;;;;;;;1.17;1.17;;;;;;;1.58;89.66;98618.72;4454985;32;33904;-85
2023/01/21 01:08:49;;;;;;;2.30;2.20;;;;;;;1.07;93.38;98625.69;4455131;32;34279;-87
2023/01/21 01:11:20;;;;;;;1.45;1.45;;;;;;;1.27;92.49;98628.56;4455176;32;34239;-75
2023/01/21 01:13:48;;;;;;;1.40;1.37;;;;;;;1.33;91.16;98628.66;4455122;32;32797;-86
2023/01/21 01:16:16;;;;;;;1.10;1.08;;;;;;;1.56;91.03;98635.81;4455080;32;33910;-85
2023/01/21 01:18:44;;;;;;;2.28;2.17;;;;;;;1.38;91.16;98643.22;4454972;32;36205;-84
2023/01/21 01:21:15;;;;;;;0.85;0.85;;;;;;;1.43;91.20;98644.16;4454860;32;34397;-86
2023/01/21 01:23:44;;;;;;;0.80;0.80;;;;;;;1.86;89.13;98639.63;4454869;32;34233;-81
2023/01/21 01:26:15;;;;;;;0.70;0.70;;;;;;;1.86;88.71;98644.75;4455021;32;33777;-85
2023/01/21 01:28:44;;;;;;;1.33;1.27;;;;;;;1.86;88.89;98642.19;4454593;32;34385;-84
2023/01/21 01:31:15;;;;;;;0.93;0.93;;;;;;;1.56;90.97;98640.94;4454886;32;35237;-85
2023/01/21 01:33:43;;;;;;;1.02;1.02;;;;;;;1.36;91.27;98632.97;4454733;32;33592;-70
2023/01/21 01:36:22;;;;;;;1.15;1.15;;;;;;;1.57;91.51;98632.41;4454833;32;34686;-85
2023/01/21 01:38:52;;;;;;;1.20;1.20;;;;;;;1.65;90.38;98627.38;4454775;32;34956;-86
2023/01/21 01:41:22;;;;;;;0.60;0.60;;;;;;;1.44;90.89;98627.94;4455075;32;35141;-68
2023/01/21 01:44:02;;;;;;;1.23;1.23;;;;;;;1.16;92.82;98624.97;4454805;32;33372;-76
2023/01/21 01:46:35;;;;;;;3.00;2.83;;;;;;;1.69;90.25;98632.59;4454994;32;33955;-76
2023/01/21 01:49:11;;;;;;;1.77;1.67;;;;;;;1.66;90.70;98621.37;4441018;32;35941;-87
2023/01/21 01:51:46;;;;;;;0.70;0.70;;;;;;;1.75;89.66;98626.66;4454766;32;35228;-85
2023/01/21 01:54:26;;;;;;;1.12;1.12;;;;;;;1.66;91.07;98632.53;4440938;32;33515;-72
2023/01/21 01:56:56;;;;;;;3.22;2.90;;;;;;;1.21;93.01;98620.75;4454893;32;33667;-74
2023/01/21 01:59:25;;;;;;;0.75;0.75;;;;;;;1.37;93.04;98628.69;4454807;32;34263;-69
2023/01/21 02:01:54;;;;;;;0.80;0.80;;;;;;;1.76;91.61;98622.37;4454664;32;34475;-85
2023/01/21 02:04:26;;;;;;;0.88;0.88;;;;;;;1.18;93.04;98617.28;4440645;32;33540;-87
2023/01/21 02:06:55;;;;;;;1.23;1.15;;;;;;;1.37;92.96;98618.44;4440923;32;34554;-72
2023/01/21 02:09:28;;;;;;;2.20;2.10;;;;;;;1.63;91.33;98617.09;4440727;32;35104;-87
2023/01/21 02:11:58;;;;;;;0.77;0.77;;;;;;;1.53;92.18;98617.78;4454912;32;34164;-86
2023/01/21 02:14:27;;;;;;;2.90;2.70;;;;;;;1.14;93.75;98611.25;4440754;32;33484;-85
2023/01/21 02:17:29;;;;;;;0.73;0.73;;;;;;;1.44;93.16;98615.13;4440638;32;33825;-82
2023/01/21 02:20:23;;;;;;;1.40;1.37;;;;;;;1.60;91.89;98616.19;4454545;32;36021;-71
2023/01/21 02:23:33;;;;;;;0.70;0.70;;;;;;;1.62;91.39;98614.50;4454416;32;35302;-84
2023/01/21 02:26:46;;;;;;;1.08;0.90;;;;;;;1.52;92.35;98623.78;4432500;32;33588;-86
2023/01/21 02:29:23;;;;;;;1.27;1.25;;;;;;;1.55;91.83;98628.94;4454417;32;34053;-85
2023/01/21 02:32:14;;;;;;;1.30;1.20;;;;;;;1.54;92.06;98629.81;4454207;32;34871;-85
2023/01/21 02:34:47;;;;;;;1.70;1.60;;;;;;;1.62;89.79;98624.75;4440238;32;34353;-69
2023/01/21 02:37:35;;;;;;;2.05;1.95;;;;;;;1.74;91.02;98626.63;4454380;32;33461;-69
2023/01/21 02:40:39;;;;;;;1.02;1.02;;;;;;;1.63;92.08;98635.06;4453341;32;33825;-69
2023/01/21 02:43:18;;;;;;;0.90;0.90;;;;;;;1.97;89.77;98635.47;4454082;32;35093;-69
2023/01/21 02:45:53;;;;;;;2.95;2.25;;;;;;;1.91;89.93;98637.97;4454320;32;34618;-69
2023/01/21 02:48:30;;;;;;;0.98;0.98;;;;;;;2.16;88.34;98636.56;4440587;32;33518;-85
2023/01/21 02:50:58;;;;;;;1.35;1.35;;;;;;;2.16;88.35;98640.84;4440473;32;33762;-68
2023/01/21 02:53:30;;;;;;;1.00;1.00;;;;;;;1.80;88.93;98631.84;4440479;32;35855;-69
2023/01/21 02:56:06;;;;;;;1.55;1.45;;;;;;;2.00;88.75;98627.81;4454191;32;34314;-85
2023/01/21 02:58:38;;;;;;;3.20;1.80;;;;;;;1.85;90.00;98617.34;4454147;32;34539;-86
2023/01/21 03:01:31;;;;;;;1.52;1.42;;;;;;;2.17;87.66;98622.00;4440256;32;33868;-70
2023/01/21 03:04:18;;;;;;;0.90;0.90;;;;;;;2.14;87.38;98619.44;4453898;32;36154;-85
2023/01/21 03:06:58;;;;;;;4.57;2.50;;;;;;;1.65;89.60;98614.53;4440146;32;35213;-68
2023/01/21 03:09:29;;;;;;;1.08;1.08;;;;;;;1.93;88.69;98605.47;4440157;32;33475;-85
2023/01/21 03:12:18;;;;;;;1.77;1.67;;;;;;;1.97;88.61;98602.09;4440088;32;33980;-70
2023/01/21 03:18:07;;;;;;;1.30;1.30;;;;;;;1.66;90.51;98612.00;4442100;32;34522;-86
2023/01/21 03:20:46;;;;;;;2.17;2.08;;;;;;;1.75;90.06;98621.53;4453791;32;33541;-71
2023/01/21 03:23:19;;;;;;;1.10;1.10;;;;;;;1.94;88.42;98638.03;4453676;32;34814;-86
2023/01/21 03:25:48;;;;;;;1.65;1.55;;;;;;;1.98;88.69;98628.66;4439842;32;36003;-68
2023/01/21 03:28:20;;;;;;;0.70;0.70;;;;;;;2.12;88.15;98637.37;4439706;32;34545;-78
2023/01/21 03:30:54;;;;;;;0.70;0.70;;;;;;;2.17;88.03;98629.72;4439786;32;33439;-84
2023/01/21 03:33:22;;;;;;;1.15;1.05;;;;;;;1.99;88.63;98636.34;4439583;32;33854;-86
2023/01/21 03:35:53;;;;;;;1.67;1.58;;;;;;;2.21;87.56;98636.63;4453538;32;36114;-86
2023/01/21 03:38:25;;;;;;;4.40;1.80;;;;;;;1.96;88.50;98648.28;4439763;32;34456;-85
2023/01/21 03:41:04;;;;;;;2.62;1.42;;;;;;;2.03;89.40;98645.84;4439933;32;34330;-86
2023/01/21 03:43:32;;;;;;;0.80;0.80;;;;;;;2.13;87.15;98654.50;4439543;32;34067;-85
2023/01/21 03:46:06;;;;;;;1.52;1.52;;;;;;;2.42;85.97;98649.69;4453328;32;35104;-85
2023/01/21 03:48:39;;;;;;;0.93;0.93;;;;;;;2.22;86.28;98661.44;4439465;32;34466;-85
2023/01/21 03:51:12;;;;;;;0.95;0.95;;;;;;;2.43;86.35;98661.69;4439734;32;33814;-68
2023/01/21 03:53:41;;;;;;;6.87;6.18;;;;;;;2.30;85.99;98664.12;4455741;32;34663;-85
2023/01/21 03:56:10;;;;;;;2.97;2.78;;;;;;;2.38;85.15;98655.66;4441748;32;34882;-84
2023/01/21 03:58:38;;;;;;;1.85;1.70;;;;;;;2.58;83.91;98660.16;4455579;32;34179;-83
2023/01/21 04:01:06;;;;;;;2.65;2.05;;;;;;;2.56;84.47;98664.38;4455528;32;33435;-85
2023/01/21 04:03:34;;;;;;;1.85;1.75;;;;;;;2.35;85.48;98670.16;4455430;32;34664;-86
2023/01/21 04:06:02;;;;;;;0.70;0.70;;;;;;;2.38;85.56;98676.22;4455390;32;35311;-85
2023/01/21 04:08:30;;;;;;;2.30;2.05;;;;;;;2.15;86.45;98669.94;4455390;32;34362;-84
2023/01/21 04:10:59;;;;;;;1.12;1.12;;;;;;;2.46;85.12;98673.72;4455515;32;33495;-86
2023/01/21 04:13:26;;;;;;;1.10;1.10;;;;;;;2.02;87.00;98684.34;4455207;32;34174;-74
2023/01/21 04:15:54;;;;;;;1.25;1.23;;;;;;;2.26;86.58;98682.06;4455431;32;34909;-85
2023/01/21 04:18:23;;;;;;;1.98;1.87;;;;;;;2.28;86.51;98680.38;4455392;32;34412;-79
2023/01/21 04:20:51;;;;;;;2.15;2.05;;;;;;;2.00;87.44;98684.31;4455384;32;33547;-84
2023/01/21 04:23:19;;;;;;;1.85;1.75;;;;;;;2.14;86.62;98686.19;4455320;32;33980;-69
2023/01/21 04:25:48;;;;;;;1.55;1.45;;;;;;;2.36;86.31;98693.28;4455266;32;35197;-68
2023/01/21 04:28:17;;;;;;;1.67;1.60;;;;;;;2.20;86.61;98691.41;4455528;32;34534;-86
2023/01/21 04:30:48;;;;;;;1.85;1.60;;;;;;;2.20;86.08;98691.41;4455288;32;33446;-86
2023/01/21 04:33:17;;;;;;;1.90;1.80;;;;;;;2.21;86.36;98693.13;4455301;32;34773;-81
2023/01/21 04:35:45;;;;;;;1.12;1.12;;;;;;;2.46;84.94;98690.00;4455372;32;35100;-85
2023/01/21 04:38:14;;;;;;;2.78;1.52;;;;;;;1.89;86.84;98706.44;4455446;32;35280;-86
2023/01/21 04:40:43;;;;;;;0.90;0.90;;;;;;;2.32;84.89;98701.81;4455347;32;33674;-86
2023/01/21 04:43:11;;;;;;;1.62;1.52;;;;;;;2.33;85.31;98713.84;4455247;32;33761;-85
2023/01/21 04:45:39;;;;;;;0.60;0.60;;;;;;;2.22;85.46;98723.97;4455178;32;35056;-83
2023/01/21 04:48:07;;;;;;;5.15;3.00;;;;;;;2.21;86.51;98723.97;4455253;32;34649;-84
2023/01/21 04:50:35;;;;;;;1.37;1.35;;;;;;;2.08;86.64;98728.06;4455151;32;33535;-85
2023/01/21 04:53:03;;;;;;;0.80;0.80;;;;;;;2.85;83.24;98724.69;4455178;32;33901;-85
2023/01/21 04:55:31;;;;;;;3.33;3.03;;;;;;;2.23;86.13;98722.28;4455207;32;34584;-85
2023/01/21 04:57:59;;;;;;;1.45;1.35;;;;;;;2.20;85.91;98723.06;4455227;32;34483;-86
2023/01/21 05:00:28;;;;;;;0.60;0.60;;;;;;;2.43;85.21;98720.78;4455213;32;33516;-68
2023/01/21 05:02:56;;;;;;;0.60;0.60;;;;;;;2.53;84.45;98726.06;4454441;32;34793;-68
2023/01/21 05:05:24;;;;;;;0.70;0.70;;;;;;;2.25;85.57;98726.56;4455179;32;35919;-89
2023/01/21 05:07:52;;;;;;;1.65;1.50;;;;;;;2.39;84.18;98729.31;4455166;32;34336;-85
2023/01/21 05:10:21;;;;;;;1.08;1.08;;;;;;;2.29;85.72;98737.75;4455092;32;33333;-86
2023/01/21 05:12:49;;;;;;;1.55;1.45;;;;;;;2.53;85.01;98729.47;4455178;32;33987;-87
2023/01/21 05:15:16;;;;;;;0.90;0.90;;;;;;;2.53;84.66;98736.34;4455101;32;35127;-87
2023/01/21 05:17:45;;;;;;;2.17;2.03;;;;;;;2.32;84.80;98734.38;4439599;32;34527;-86
2023/01/21 05:20:14;;;;;;;3.55;3.22;;;;;;;2.22;85.83;98743.66;4439434;32;33547;-86
2023/01/21 05:22:46;;;;;;;1.20;1.20;;;;;;;2.25;86.14;98738.56;4439179;32;33949;-86
2023/01/21 05:25:15;;;;;;;1.87;1.77;;;;;;;2.41;84.90;98731.91;4439219;32;35963;-86
2023/01/21 05:27:43;;;;;;;1.23;1.23;;;;;;;2.50;85.49;98747.41;4439141;32;35302;-87
2023/01/21 05:30:11;;;;;;;1.70;1.60;;;;;;;2.39;85.01;98749.88;4439277;32;33292;-85
2023/01/21 05:32:40;;;;;;;0.93;0.93;;;;;;;2.26;85.34;98748.84;4439074;32;34753;-67
2023/01/21 05:35:08;;;;;;;0.70;0.70;;;;;;;2.26;86.94;98751.44;4439177;32;35829;-85
2023/01/21 05:37:36;;;;;;;2.05;1.95;;;;;;;2.14;87.26;98747.84;4439274;32;34525;-67
2023/01/21 05:40:05;;;;;;;0.70;0.70;;;;;;;2.33;86.39;98749.81;4439125;32;34322;-69
2023/01/21 05:42:33;;;;;;;2.80;2.60;;;;;;;2.25;86.59;98751.41;4439312;32;34056;-69
2023/01/21 05:45:01;;;;;;;0.85;0.85;;;;;;;2.13;86.59;98752.09;4438926;32;35834;-67
2023/01/21 05:47:30;;;;;;;1.02;1.02;;;;;;;2.42;85.10;98760.19;4439195;32;34499;-67
2023/01/21 05:49:58;;;;;;;3.05;2.35;;;;;;;2.55;84.40;98768.91;4438992;32;34436;-83
2023/01/21 05:52:26;;;;;;;0.85;0.85;;;;;;;2.22;85.94;98761.63;4439000;32;34718;-74
2023/01/21 05:54:54;;;;;;;0.60;0.60;;;;;;;2.32;86.18;98763.47;4439050;32;35104;-83
2023/01/21 05:57:29;;;;;;;1.67;1.52;;;;;;;2.26;86.90;98758.28;4439025;32;34489;-81
2023/01/21 05:59:58;;;;;;;3.65;3.37;;;;;;;2.40;86.24;98763.56;4438996;32;33329;-66
2023/01/21 06:02:26;;;;;;;1.05;1.05;;;;;;;2.32;85.20;98754.91;4438955;32;34350;-74
2023/01/21 06:04:54;;;;;;;3.35;2.37;;;;;;;2.21;87.07;98768.47;4439224;32;35238;-77
2023/01/21 06:07:22;;;;;;;5.35;2.17;;;;;;;2.08;87.12;98779.41;4439358;32;34559;-83
2023/01/21 06:09:50;;;;;;;1.85;1.40;;;;;;;1.92;87.64;98790.31;4438891;32;34271;-88
2023/01/21 06:12:19;;;;;;;3.45;2.60;;;;;;;2.33;86.60;98785.78;4439113;32;33932;-68
2023/01/21 06:14:47;;;;;;;3.30;1.95;;;;;;;2.43;85.69;98784.16;4437726;32;35102;-88
2023/01/21 06:17:15;;;;;;;0.70;0.70;;;;;;;2.11;87.90;98786.31;4439060;32;34358;-87
2023/01/21 06:19:43;;;;;;;1.50;1.35;;;;;;;2.28;88.50;98793.41;4439261;32;34364;-87
2023/01/21 06:22:15;;;;;;;1.02;1.02;;;;;;;2.43;85.75;98792.72;4439193;32;33956;-86
2023/01/21 06:24:43;;;;;;;2.33;2.15;;;;;;;2.46;85.64;98797.91;4438917;32;35068;-80
2023/01/21 06:27:11;;;;;;;5.53;4.50;;;;;;;2.52;85.37;98801.41;4439188;32;34412;-86
2023/01/21 06:29:39;;;;;;;2.30;2.10;;;;;;;2.38;86.72;98799.53;4425180;32;33595;-86
2023/01/21 06:32:08;;;;;;;1.65;1.55;;;;;;;1.77;89.65;98817.47;4439132;32;33962;-88
2023/01/21 06:34:36;;;;;;;1.30;1.23;;;;;;;2.01;88.78;98824.72;4438748;32;35942;-88
2023/01/21 06:37:04;;;;;;;1.70;1.62;;;;;;;2.17;87.42;98830.06;4438927;32;34348;-88
2023/01/21 06:39:32;;;;;;;0.80;0.80;;;;;;;1.92;88.13;98829.69;4439132;32;34427;-88
2023/01/21 06:42:00;;;;;;;1.12;1.00;;;;;;;2.38;87.69;98830.38;4438808;32;34007;-71
2023/01/21 06:44:28;;;;;;;1.50;1.40;;;;;;;2.65;86.07;98834.16;4438967;32;36002;-81
2023/01/21 06:46:56;;;;;;;1.33;1.33;;;;;;;2.27;87.45;98831.91;4438707;32;34508;-88
2023/01/21 06:49:28;;;;;;;2.45;2.25;;;;;;;2.27;86.35;98837.06;4438956;32;34405;-78
2023/01/21 06:51:56;;;;;;;2.67;1.85;;;;;;;2.63;86.05;98830.72;4439012;32;34136;-89
2023/01/21 06:54:25;;;;;;;6.10;3.70;;;;;;;2.50;86.40;98821.94;4438563;32;35092;-83
2023/01/21 06:56:57;;;;;;;4.05;2.30;;;;;;;2.29;86.71;98835.37;4438850;32;34505;-91
2023/01/21 06:59:25;;;;;;;4.30;4.00;;;;;;;2.43;87.14;98828.72;4438615;32;33423;-91
2023/01/21 07:01:53;;;;;;;10.00;9.02;;;;;;;2.56;86.39;98832.31;4438671;32;33949;-91
2023/01/21 07:04:22;;;;;;;16.48;14.63;;;;;;;2.58;85.81;98834.91;4438319;32;35011;-68
2023/01/21 07:06:50;;;;;;;16.42;13.48;;;;;;;2.52;86.47;98835.69;4438610;32;35245;-90
2023/01/21 07:09:18;;;;;;;5.68;5.22;;;;;;;2.62;85.67;98840.09;4438636;32;34547;-76
2023/01/21 07:11:47;;;;;;;10.15;7.70;;;;;;;3.00;84.51;98846.56;4438783;32;34727;-91
2023/01/21 07:14:15;;;;;;;7.10;6.45;;;;;;;2.56;84.90;98841.72;4438479;32;35066;-91
2023/01/21 07:16:43;;;;;;;4.93;4.03;;;;;;;2.91;84.76;98846.44;4438579;32;34438;-90
2023/01/21 07:19:11;;;;;;;1.85;1.75;;;;;;;2.62;85.56;98854.66;4438380;32;33567;-89
2023/01/21 07:21:40;;;;;;;3.45;3.20;;;;;;;2.75;85.43;98856.53;4438448;32;33871;-87
2023/01/21 07:24:08;;;;;;;1.37;1.37;;;;;;;2.99;83.87;98871.41;4438430;32;35946;-91
2023/01/21 07:26:37;;;;;;;2.30;2.10;;;;;;;2.98;83.84;98884.25;4439037;32;34608;-90
2023/01/21 07:29:05;;;;;;;0.98;0.93;;;;;;;3.00;83.30;98885.12;4440682;32;34298;-91
2023/01/21 07:31:33;;;;;;;0.70;0.70;;;;;;;2.99;83.13;98896.28;4440341;32;34831;-79
2023/01/21 07:34:02;;;;;;;1.95;1.87;;;;;;;3.06;83.44;98898.09;4440124;32;35906;-89
2023/01/21 07:36:31;;;;;;;0.90;0.90;;;;;;;2.71;84.64;98906.19;4440434;32;34604;-89
2023/01/21 07:38:59;;;;;;;1.58;1.10;;;;;;;2.59;85.88;98908.59;4440325;32;33483;-78
2023/01/21 07:41:27;;;;;;;1.02;1.02;;;;;;;2.94;85.52;98913.34;4440392;32;33973;-90
2023/01/21 07:43:55;;;;;;;2.05;1.85;;;;;;;2.89;84.61;98909.84;4440117;32;35125;-89
2023/01/21 07:46:23;;;;;;;0.60;0.60;;;;;;;2.89;85.02;98910.72;4439993;32;34454;-89
2023/01/21 07:48:52;;;;;;;1.55;1.45;;;;;;;3.03;84.32;98911.75;4440114;32;34262;-89
2023/01/21 07:51:21;;;;;;;2.10;2.00;;;;;;;2.99;82.84;98909.13;4440051;32;34689;-86
2023/01/21 07:53:49;;;;;;;0.93;0.90;;;;;;;2.99;83.74;98914.28;4440139;32;35199;-75
2023/01/21 07:56:19;;;;;;;0.85;0.85;;;;;;;2.64;84.73;98914.66;4440024;32;35295;-88
2023/01/21 07:58:47;;;;;;;5.05;2.95;;;;;;;3.13;83.67;98917.88;4440065;32;33686;-86
2023/01/21 08:01:15;;;;;;;15.75;4.03;;;;;;;2.79;85.35;98927.75;4440100;32;34758;-69
2023/01/21 08:03:43;;;;;;;1.37;1.35;;;;;;;3.32;82.90;98930.97;4440101;32;34715;-68
2023/01/21 08:06:11;;;;;;;3.78;3.47;;;;;;;3.31;81.94;98931.81;4439837;32;35349;-69
2023/01/21 08:08:39;;;;;;;2.47;2.37;;;;;;;2.79;84.72;98935.47;4439953;32;34397;-70
2023/01/21 08:11:07;;;;;;;0.65;0.65;;;;;;;3.23;84.28;98930.03;4439965;32;33976;-84
2023/01/21 08:13:35;;;;;;;0.88;0.85;;;;;;;3.18;83.40;98934.25;4439889;32;35370;-84
2023/01/21 08:16:04;;;;;;;1.08;1.08;;;;;;;3.24;83.44;98933.44;4440002;32;34527;-84
2023/01/21 08:18:33;;;;;;;1.35;1.35;;;;;;;3.56;82.28;98938.94;4439771;32;33503;-84
2023/01/21 08:21:01;;;;;;;1.67;1.58;;;;;;;3.48;82.64;98934.59;4439946;32;34034;-69
2023/01/21 08:23:29;;;;;;;4.47;3.42;;;;;;;3.25;82.28;98942.03;4439917;32;34901;-83
2023/01/21 08:26:01;;;;;;;3.67;3.37;;;;;;;3.21;83.19;98942.00;4439679;32;34625;-84
2023/01/21 08:28:29;;;;;;;7.15;3.83;;;;;;;3.15;84.04;98934.19;4440016;32;33385;-83
2023/01/21 08:31:09;;;;;;;2.65;2.47;;;;;;;3.20;83.94;98934.28;4439840;32;33803;-83
2023/01/21 08:33:37;;;;;;;3.15;2.95;;;;;;;3.30;83.40;98930.97;4439778;32;34943;-82
2023/01/21 08:36:07;;;;;;;1.35;1.25;;;;;;;3.54;82.71;98937.22;4439747;32;34502;-83
2023/01/21 08:38:35;;;;;;;2.97;2.78;;;;;;;2.85;85.26;98945.81;4439015;32;34277;-83
2023/01/21 08:41:04;;;;;;;4.25;2.20;;;;;;;3.54;82.88;98953.53;4439799;32;33924;-82
2023/01/21 08:43:32;;;;;;;1.23;1.23;;;;;;;3.46;82.99;98955.16;4439790;32;35120;-83
2023/01/21 08:46:01;;;;;;;1.40;1.40;;;;;;;3.72;81.58;98962.31;4439598;32;35216;-68
2023/01/21 08:48:29;;;;;;;1.48;1.37;;;;;;;3.48;82.67;98961.19;4439647;32;33663;-77
2023/01/21 08:50:58;;;;;;;0.73;0.73;;;;;;;3.35;82.82;98961.88;4439733;32;33911;-68
2023/01/21 08:53:27;;;;;;;1.10;1.08;;;;;;;3.23;83.64;98960.91;4425935;32;35924;-70
2023/01/21 08:55:59;;;;;;;3.58;2.78;;;;;;;3.33;83.92;98961.00;4439684;32;34465;-81
2023/01/21 08:58:29;;;;;;;0.70;0.70;;;;;;;3.20;83.41;98955.72;4439777;32;33424;-80
2023/01/21 09:00:57;;;;;;;1.70;1.60;;;;;;;3.39;83.23;98961.09;4439667;32;33976;-81
2023/01/21 09:03:25;;;;;;;1.17;1.15;;;;;;;2.96;85.23;98969.09;4439633;32;35998;-81
2023/01/21 09:05:54;;;;;;;1.35;1.35;;;;;;;3.34;83.65;98970.47;4439497;32;34859;-81
2023/01/21 09:08:22;;;;;;;2.22;2.10;;;;;;;3.26;84.13;98972.06;4425895;32;33607;-79
2023/01/21 09:10:59;;;;;;;1.65;1.55;;;;;;;3.45;83.05;98965.44;4439637;32;34057;-68
2023/01/21 09:13:30;;;;;;;8.50;3.37;;;;;;;3.48;82.60;98966.34;4439564;32;35969;-78
2023/01/21 09:15:59;;;;;;;1.23;1.23;;;;;;;3.38;83.88;98972.22;4439537;32;34542;-79
2023/01/21 09:18:27;;;;;;;1.87;1.40;;;;;;;3.47;83.41;98972.31;4439501;32;33502;-71
2023/01/21 09:21:02;;;;;;;0.82;0.82;;;;;;;3.77;82.31;98965.78;4439545;32;34012;-78
2023/01/21 09:23:33;;;;;;;1.25;1.20;;;;;;;3.66;82.48;98964.81;4439467;32;35032;-68
2023/01/21 09:26:12;;;;;;;1.35;1.25;;;;;;;3.34;83.70;98966.19;4439422;32;34545;-67
2023/01/21 09:28:42;;;;;;;0.60;0.60;;;;;;;3.97;81.29;98963.41;4439480;32;34318;-77
2023/01/21 09:31:15;;;;;;;0.70;0.70;;;;;;;4.27;79.63;98967.13;4439569;32;34050;-67
2023/01/21 09:33:45;;;;;;;1.37;1.33;;;;;;;4.14;80.09;98971.31;4439258;32;35124;-78
2023/01/21 09:36:18;;;;;;;2.92;2.72;;;;;;;3.80;81.57;98971.84;4439427;32;34765;-77
2023/01/21 09:38:47;;;;;;;4.85;4.43;;;;;;;3.92;81.06;98965.97;4439438;32;33530;-76
2023/01/21 09:41:37;;;;;;;6.80;6.22;;;;;;;3.42;83.59;98971.41;4439366;32;34005;-77
2023/01/21 09:44:24;;;;;;;12.55;11.00;;;;;;;3.34;83.99;98973.03;4439328;32;35146;-77
2023/01/21 09:46:55;;;;;;;5.90;5.35;;;;;;;3.74;82.82;98976.06;4439268;32;34529;-77
2023/01/21 09:49:27;;;;;;;14.43;12.52;;;;;;;3.40;83.84;98971.37;4438952;32;33508;-78
2023/01/21 09:52:05;;;;;;;8.50;6.97;;;;;;;3.63;83.19;98959.63;4425596;32;33924;-78
2023/01/21 09:54:35;;;;;;;6.78;6.18;;;;;;;3.68;83.50;98965.69;4439372;32;36029;-78
2023/01/21 09:57:31;;;;;;;10.13;6.95;;;;;;;3.63;83.24;98973.38;4439275;32;34620;-77
2023/01/21 10:00:24;;;;;;;7.82;5.47;;;;;;;3.73;82.97;98971.78;4439294;32;33441;-69
2023/01/21 10:03:11;;;;;;;2.33;2.22;;;;;;;3.12;85.61;98974.47;4439598;32;33973;-77
2023/01/21 10:05:51;;;;;;;1.25;1.25;;;;;;;3.49;84.93;98974.91;4439152;32;35931;-76
2023/01/21 10:08:44;;;;;;;6.07;5.53;;;;;;;3.54;83.76;98983.56;4439172;32;35168;-67
2023/01/21 10:11:43;;;;;;;1.80;1.70;;;;;;;3.91;82.00;98969.38;4439222;32;33469;-68
2023/01/21 10:14:35;;;;;;;0.90;0.90;;;;;;;3.75;82.11;98975.22;4439130;32;33935;-77
2023/01/21 10:17:20;;;;;;;1.58;1.37;;;;;;;3.44;84.75;98977.44;4439149;32;35210;-78
2023/01/21 10:20:14;;;;;;;3.65;3.35;;;;;;;3.84;82.74;98977.88;4425449;32;34354;-74
2023/01/21 10:22:49;;;;;;;0.80;0.80;;;;;;;3.15;86.30;98974.50;4439038;32;33459;-69
2023/01/21 10:25:23;;;;;;;2.15;2.05;;;;;;;3.47;85.83;98974.91;4425341;32;33936;-79
2023/01/21 10:27:53;;;;;;;0.98;0.98;;;;;;;3.44;84.46;98976.56;4425131;32;35001;-79
2023/01/21 10:30:24;;;;;;;1.65;1.48;;;;;;;3.53;85.78;98977.56;4425238;32;35193;-69
2023/01/21 10:32:55;;;;;;;1.02;1.02;;;;;;;3.76;84.06;98980.37;4424980;32;34354;-80
2023/01/21 10:35:55;;;;;;;1.25;1.20;;;;;;;4.04;83.26;98985.84;4425499;32;34694;-79
2023/01/21 10:38:41;;;;;;;1.25;1.12;;;;;;;4.12;82.71;98988.47;4415181;32;35028;-71
2023/01/21 10:41:35;;;;;;;1.17;1.15;;;;;;;4.11;82.88;98986.72;4438797;32;35323;-71
2023/01/21 10:44:21;;;;;;;1.40;1.30;;;;;;;3.86;83.83;98983.06;4438708;32;33420;-79
2023/01/21 10:46:56;;;;;;;;;;;;;;;3.75;83.81;98985.53;4425384;32;34721;-70
2023/01/21 10:49:43;;;;;;;2.37;1.62;;;;;;;4.23;82.64;98986.84;4438769;32;35302;-79
2023/01/21 10:52:21;;;;;;;1.87;1.77;;;;;;;4.08;82.41;98999.59;4424893;32;35144;-68
2023/01/21 10:55:11;;;;;;;1.85;1.75;;;;;;;3.69;84.15;98995.72;4425001;32;33559;-78
2023/01/21 10:57:57;;;;;;;4.12;2.53;;;;;;;3.83;84.60;98990.75;4438648;32;33769;-73
2023/01/21 11:00:32;;;;;;;3.40;3.10;;;;;;;3.89;83.35;98981.38;4438667;32;35179;-79
2023/01/21 11:03:31;;;;;;;1.23;1.23;;;;;;;3.50;86.63;98987.81;4426625;32;35210;-68
2023/01/21 11:06:01;;;;;;;0.82;0.82;;;;;;;3.96;84.04;98983.16;4440495;32;34349;-78
2023/01/21 11:08:30;;;;;;;3.10;2.70;;;;;;;3.48;85.61;98980.94;4427007;32;34898;-69
2023/01/21 11:10:59;;;;;;;1.37;1.35;;;;;;;3.66;86.06;98977.69;4426647;32;35879;-80
2023/01/21 11:13:27;;;;;;;0.88;0.88;;;;;;;3.44;86.23;98981.72;4426629;32;35307;-71
2023/01/21 11:15:58;;;;;;;0.98;0.95;;;;;;;3.96;85.34;98980.59;4440438;32;33434;-79
2023/01/21 11:18:36;;;;;;;12.37;2.95;;;;;;;3.85;84.43;98981.31;4440231;32;33064;-79
2023/01/21 11:21:21;;;;;;;9.13;5.03;;;;;;;4.01;84.55;98979.75;4426674;32;35122;-80
2023/01/21 11:23:57;;;;;;;0.88;0.88;;;;;;;3.89;83.94;98978.78;4440172;32;35273;-69
2023/01/21 11:26:31;;;;;;;1.67;1.58;;;;;;;4.02;84.92;98978.91;4440311;32;33676;-71
2023/01/21 11:29:06;;;;;;;0.50;0.50;;;;;;;3.96;85.12;98982.31;4426577;32;34020;-78
2023/01/21 11:31:35;;;;;;;0.80;0.80;;;;;;;4.01;85.12;98970.34;4434382;32;197777;-79
2023/01/21 11:34:13;;;;;;;1.25;1.25;;;;;;;4.02;84.29;98976.34;4439946;32;34416;-80
2023/01/21 11:37:04;;;;;;;1.20;1.20;;;;;;;3.82;86.59;98969.28;4440325;32;33456;-69
2023/01/21 11:39:33;;;;;;;1.92;1.80;;;;;;;4.32;83.95;98970.59;4426585;32;34737;-68
2023/01/21 11:42:13;;;;;;;1.37;1.33;;;;;;;3.64;87.83;98966.53;4440036;32;35167;-75
2023/01/21 11:45:00;;;;;;;3.65;2.90;;;;;;;3.71;87.47;98970.91;4440250;32;34573;-79
2023/01/21 11:47:46;;;;;;;1.40;1.40;;;;;;;4.21;85.39;98967.94;4440171;32;34233;-78
2023/01/21 11:50:36;;;;;;;0.82;0.82;;;;;;;3.98;85.17;98960.00;4440248;32;33951;-69
2023/01/21 11:53:17;;;;;;;1.20;1.20;;;;;;;4.17;85.59;98956.72;4440035;32;35878;-80
2023/01/21 11:55:50;;;;;;;1.42;1.33;;;;;;;3.87;87.46;98959.03;4440206;32;34523;-79
2023/01/21 11:58:23;;;;;;;1.30;1.27;;;;;;;3.86;86.90;98958.16;4426406;32;33934;-78
2023/01/21 12:00:53;;;;;;;0.80;0.80;;;;;;;4.25;85.77;98966.25;4426388;32;33895;-69
2023/01/21 12:03:35;;;;;;;0.70;0.70;;;;;;;4.08;85.94;98964.37;4426187;32;35906;-80
2023/01/21 12:06:05;;;;;;;1.60;1.15;;;;;;;4.37;85.73;98969.78;4440042;32;34399;-81
2023/01/21 12:08:36;;;;;;;2.28;1.65;;;;;;;4.49;84.97;98973.31;4440052;32;32680;-79
2023/01/21 12:11:06;;;;;;;0.93;0.90;;;;;;;4.28;84.37;98974.88;4440091;32;34776;-75